createdAt,value
2024-01-24T00:01:11.057Z,2.73
2024-01-24T00:03:37.543Z,2.75
2024-01-24T00:06:03.780Z,2.76
2024-01-24T00:08:30.261Z,2.78
2024-01-24T00:10:56.606Z,2.82
2024-01-24T00:13:23.131Z,2.80
2024-01-24T00:15:49.650Z,2.88
2024-01-24T00:18:16.241Z,2.89
2024-01-24T00:20:42.504Z,2.90
2024-01-24T00:23:08.951Z,2.88
2024-01-24T00:25:35.494Z,2.88
2024-01-24T00:28:01.885Z,2.87
2024-01-24T00:30:28.265Z,2.87
2024-01-24T00:32:54.832Z,2.81
2024-01-24T00:35:21.230Z,2.81
2024-01-24T00:37:47.627Z,2.84
2024-01-24T00:40:14.080Z,2.82
2024-01-24T00:42:40.579Z,2.83
2024-01-24T00:45:06.967Z,2.80
2024-01-24T00:47:33.439Z,2.74
2024-01-24T00:49:59.815Z,2.69
2024-01-24T00:52:26.268Z,2.61
2024-01-24T00:54:52.814Z,2.60
2024-01-24T00:57:19.253Z,2.58
2024-01-24T00:59:45.648Z,2.53
2024-01-24T01:02:12.058Z,2.48
2024-01-24T01:04:38.407Z,2.43
2024-01-24T01:07:04.894Z,2.40
2024-01-24T01:09:31.353Z,2.39
2024-01-24T01:11:57.715Z,2.34
2024-01-24T01:14:24.062Z,2.31
2024-01-24T01:16:50.470Z,2.23
2024-01-24T01:19:16.923Z,2.24
2024-01-24T01:21:43.448Z,2.22
2024-01-24T01:24:09.882Z,2.20
2024-01-24T01:26:36.210Z,2.12
2024-01-24T01:29:02.566Z,2.14
2024-01-24T01:31:29.078Z,2.20
2024-01-24T01:33:55.492Z,2.23
2024-01-24T01:36:23.629Z,2.21
2024-01-24T01:38:48.386Z,2.23
2024-01-24T01:41:14.812Z,2.21
2024-01-24T01:43:41.214Z,2.21
2024-01-24T01:46:07.664Z,2.21
2024-01-24T01:48:34.138Z,2.13
2024-01-24T01:51:00.447Z,2.08
2024-01-24T01:53:26.856Z,2.06
2024-01-24T01:55:53.331Z,1.97
2024-01-24T01:58:19.725Z,1.94
2024-01-24T02:00:46.173Z,1.98
2024-01-24T02:03:12.689Z,2.02
2024-01-24T02:05:39.439Z,2.04
2024-01-24T02:08:05.486Z,2.02
2024-01-24T02:10:32.023Z,1.95
2024-01-24T02:12:58.479Z,1.93
2024-01-24T02:15:24.896Z,1.91
2024-01-24T02:17:51.288Z,1.92
2024-01-24T02:20:17.740Z,1.88
2024-01-24T02:22:44.111Z,1.87
2024-01-24T02:25:10.814Z,1.82
2024-01-24T02:27:37.244Z,1.75
2024-01-24T02:30:03.691Z,1.73
2024-01-24T02:32:30.141Z,1.75
2024-01-24T02:34:56.577Z,1.77
2024-01-24T02:37:23.082Z,1.82
2024-01-24T02:39:49.643Z,1.86
2024-01-24T02:42:15.991Z,1.92
2024-01-24T02:44:42.344Z,1.98
2024-01-24T02:47:08.708Z,1.99
2024-01-24T02:49:35.305Z,2.04
2024-01-24T02:52:01.566Z,1.98
2024-01-24T02:54:28.062Z,1.94
2024-01-24T02:56:54.451Z,1.90
2024-01-24T02:59:20.856Z,1.86
2024-01-24T03:01:47.322Z,1.89
2024-01-24T03:04:13.968Z,1.85
2024-01-24T03:06:40.311Z,1.81
2024-01-24T03:09:06.711Z,1.83
2024-01-24T03:11:33.144Z,1.80
2024-01-24T03:13:59.690Z,1.79
2024-01-24T03:16:26.039Z,1.81
2024-01-24T03:18:52.871Z,1.77
2024-01-24T03:21:19.222Z,1.76
2024-01-24T03:23:45.489Z,1.74
2024-01-24T03:26:11.961Z,1.69
2024-01-24T03:28:38.396Z,1.72
2024-01-24T03:31:04.752Z,1.71
2024-01-24T03:33:31.348Z,1.71
2024-01-24T03:35:57.602Z,1.66
2024-01-24T03:38:24.084Z,1.63
2024-01-24T03:40:50.399Z,1.62
2024-01-24T03:43:16.902Z,1.68
2024-01-24T03:45:43.386Z,1.75
2024-01-24T03:48:09.800Z,1.80
2024-01-24T03:50:36.104Z,1.80
2024-01-24T03:53:02.504Z,1.83
2024-01-24T03:55:28.895Z,1.75
2024-01-24T03:57:55.418Z,1.72
2024-01-24T04:00:21.815Z,1.78
2024-01-24T04:02:48.239Z,1.78
2024-01-24T04:05:14.689Z,1.67
2024-01-24T04:07:41.103Z,1.63
2024-01-24T04:10:07.540Z,1.61
2024-01-24T04:12:34.111Z,1.53
2024-01-24T04:15:00.585Z,1.49
2024-01-24T04:17:27.090Z,1.50
2024-01-24T04:19:53.434Z,1.57
2024-01-24T04:22:19.843Z,1.64
2024-01-24T04:24:46.288Z,1.65
2024-01-24T04:27:12.904Z,1.62
2024-01-24T04:29:39.280Z,1.59
2024-01-24T04:32:05.740Z,1.60
2024-01-24T04:34:32.339Z,1.59
2024-01-24T04:36:58.634Z,1.56
2024-01-24T04:39:24.994Z,1.53
2024-01-24T04:41:56.242Z,1.49
2024-01-24T04:44:17.840Z,1.48
2024-01-24T04:46:44.361Z,1.42
2024-01-24T04:49:22.952Z,1.43
2024-01-24T04:51:37.263Z,1.37
2024-01-24T04:54:03.646Z,1.29
2024-01-24T04:56:30.074Z,1.26
2024-01-24T04:58:56.429Z,1.27
2024-01-24T05:01:23.071Z,1.32
2024-01-24T05:03:49.489Z,1.34
2024-01-24T05:06:15.901Z,1.36
2024-01-24T05:08:42.355Z,1.35
2024-01-24T05:11:08.805Z,1.27
2024-01-24T05:13:35.138Z,1.22
2024-01-24T05:16:01.657Z,1.21
2024-01-24T05:18:28.132Z,1.31
2024-01-24T05:20:54.431Z,1.40
2024-01-24T05:23:20.799Z,1.44
2024-01-24T05:25:47.264Z,1.43
2024-01-24T05:28:13.645Z,1.40
2024-01-24T05:30:40.330Z,1.45
2024-01-24T05:33:06.612Z,1.47
2024-01-24T05:35:33.017Z,1.50
2024-01-24T05:37:59.360Z,1.57
2024-01-24T05:40:25.819Z,1.64
2024-01-24T05:42:53.596Z,1.60
2024-01-24T05:45:18.696Z,1.62
2024-01-24T05:47:45.121Z,1.59
2024-01-24T05:50:11.503Z,1.61
2024-01-24T05:52:39.693Z,1.61
2024-01-24T05:55:04.403Z,1.62
2024-01-24T05:57:30.714Z,1.63
2024-01-24T05:59:57.281Z,1.58
2024-01-24T06:02:23.629Z,1.57
2024-01-24T06:04:50.377Z,1.57
2024-01-24T06:07:16.864Z,1.61
2024-01-24T06:09:43.251Z,1.63
2024-01-24T06:12:09.538Z,1.54
2024-01-24T06:14:35.980Z,1.55
2024-01-24T06:17:02.387Z,1.55
2024-01-24T06:19:28.851Z,1.61
2024-01-24T06:21:55.290Z,1.63
2024-01-24T06:24:23.282Z,1.62
2024-01-24T06:26:48.020Z,1.66
2024-01-24T06:29:14.429Z,1.64
2024-01-24T06:31:40.845Z,1.67
2024-01-24T06:34:07.436Z,1.72
2024-01-24T06:36:33.664Z,1.76
2024-01-24T06:39:00.182Z,1.84
2024-01-24T06:41:26.532Z,1.98
2024-01-24T06:43:52.933Z,2.11
2024-01-24T06:46:19.372Z,2.36
2024-01-24T06:48:46.027Z,2.45
2024-01-24T06:51:12.276Z,2.97
2024-01-24T06:53:38.800Z,3.55
2024-01-24T06:56:05.199Z,3.83
2024-01-24T06:58:31.724Z,4.18
2024-01-24T07:00:58.216Z,4.55
2024-01-24T07:03:24.698Z,4.69
2024-01-24T07:05:50.973Z,4.87
2024-01-24T07:08:17.396Z,5.10
2024-01-24T07:10:43.836Z,5.40
2024-01-24T07:13:10.286Z,5.81
2024-01-24T07:15:36.682Z,6.04
2024-01-24T07:18:03.210Z,6.40
2024-01-24T07:20:29.463Z,6.84
2024-01-24T07:22:55.909Z,7.07
2024-01-24T07:25:22.341Z,7.05
2024-01-24T07:27:48.860Z,6.96
2024-01-24T07:30:15.155Z,7.11
2024-01-24T07:32:41.624Z,7.08
2024-01-24T07:35:08.080Z,7.16
2024-01-24T07:37:34.476Z,7.63
2024-01-24T07:40:01.067Z,7.61
2024-01-24T07:42:27.341Z,7.68
2024-01-24T07:44:53.682Z,7.46
2024-01-24T07:47:20.230Z,7.73
2024-01-24T07:49:46.675Z,7.51
2024-01-24T07:52:13.291Z,7.52
2024-01-24T07:54:39.536Z,7.65
2024-01-24T07:57:05.950Z,7.73
2024-01-24T07:59:32.342Z,7.72
2024-01-24T08:01:58.941Z,7.85
2024-01-24T08:04:25.448Z,7.92
2024-01-24T08:06:52.021Z,7.47
2024-01-24T08:09:18.358Z,7.63
2024-01-24T08:11:44.767Z,7.77
2024-01-24T08:14:11.114Z,7.35
2024-01-24T08:16:37.619Z,7.39
2024-01-24T08:19:04.150Z,7.81
2024-01-24T08:21:30.501Z,7.64
2024-01-24T08:23:56.850Z,7.95
2024-01-24T08:26:23.346Z,7.97
2024-01-24T08:28:49.728Z,7.80
2024-01-24T08:31:16.202Z,7.84
2024-01-24T08:33:42.822Z,7.84
2024-01-24T08:36:09.065Z,7.67
2024-01-24T08:38:35.466Z,7.88
2024-01-24T08:41:01.951Z,7.91
2024-01-24T08:43:28.325Z,8.16
2024-01-24T08:45:54.884Z,7.86
2024-01-24T08:48:21.254Z,7.96
2024-01-24T08:50:47.692Z,8.28
2024-01-24T08:53:14.099Z,8.13
2024-01-24T08:55:40.516Z,7.80
2024-01-24T08:58:07.037Z,8.13
2024-01-24T09:00:33.431Z,8.07
2024-01-24T09:02:59.840Z,8.32
2024-01-24T09:05:26.852Z,8.47
2024-01-24T09:07:53.184Z,8.27
2024-01-24T09:10:19.641Z,8.25
2024-01-24T09:12:46.039Z,8.38
2024-01-24T09:15:12.393Z,8.37
2024-01-24T09:17:38.902Z,8.52
2024-01-24T09:20:05.371Z,8.58
2024-01-24T09:22:31.673Z,8.43
2024-01-24T09:24:58.216Z,8.22
2024-01-24T09:27:24.520Z,8.30
2024-01-24T09:29:50.883Z,8.40
2024-01-24T09:32:17.324Z,8.77
2024-01-24T09:34:44.090Z,8.57
2024-01-24T09:37:10.177Z,8.53
2024-01-24T09:39:36.658Z,8.71
2024-01-24T09:42:03.046Z,8.99
2024-01-24T09:44:29.497Z,9.02
2024-01-24T09:46:55.853Z,8.66
2024-01-24T09:49:22.410Z,8.87
2024-01-24T09:51:48.661Z,8.75
2024-01-24T09:54:15.175Z,8.93
2024-01-24T09:56:41.614Z,9.06
2024-01-24T09:59:07.912Z,9.25
2024-01-24T10:01:34.477Z,9.58
2024-01-24T10:04:00.929Z,9.15
2024-01-24T10:06:27.449Z,9.10
2024-01-24T10:08:54.022Z,9.50
2024-01-24T10:11:20.568Z,9.32
2024-01-24T10:13:46.925Z,8.95
2024-01-24T10:16:13.484Z,8.74
2024-01-24T10:18:39.805Z,9.18
2024-01-24T10:21:06.777Z,9.05
2024-01-24T10:23:32.930Z,9.04
2024-01-24T10:25:59.351Z,8.98
2024-01-24T10:28:25.859Z,9.16
2024-01-24T10:30:52.690Z,9.26
2024-01-24T10:33:19.658Z,9.55
2024-01-24T10:35:45.513Z,9.20
2024-01-24T10:38:11.967Z,8.96
2024-01-24T10:40:38.490Z,8.79
2024-01-24T10:43:04.992Z,8.95
2024-01-24T10:45:31.363Z,9.29
2024-01-24T10:47:57.775Z,9.21
2024-01-24T10:50:24.419Z,9.82
2024-01-24T10:52:53.182Z,9.61
2024-01-24T10:55:17.307Z,9.35
2024-01-24T10:57:44.231Z,9.20
2024-01-24T11:00:10.251Z,9.08
2024-01-24T11:02:36.645Z,9.18
2024-01-24T11:05:03.087Z,9.61
2024-01-24T11:07:29.406Z,9.80
2024-01-24T11:09:55.985Z,9.63
2024-01-24T11:12:22.324Z,9.60
2024-01-24T11:14:48.739Z,9.68
2024-01-24T11:17:15.177Z,9.66
2024-01-24T11:19:41.860Z,9.60
2024-01-24T11:22:13.608Z,9.90
2024-01-24T11:24:34.608Z,9.96
2024-01-24T11:27:01.119Z,9.63
2024-01-24T11:29:27.660Z,9.83
2024-01-24T11:31:54.104Z,9.42
2024-01-24T11:34:20.706Z,9.18
2024-01-24T11:36:46.897Z,9.22
2024-01-24T11:39:13.394Z,9.25
2024-01-24T11:41:39.837Z,9.56
2024-01-24T11:44:06.257Z,9.46
2024-01-24T11:46:32.691Z,9.62
2024-01-24T11:48:59.282Z,9.91
2024-01-24T11:51:25.685Z,10.11
2024-01-24T11:53:52.079Z,9.96
2024-01-24T11:56:18.563Z,9.90
2024-01-24T11:58:44.985Z,9.76
2024-01-24T12:01:11.521Z,9.73
2024-01-24T12:03:37.831Z,9.95
2024-01-24T12:06:04.268Z,9.69
2024-01-24T12:08:30.685Z,9.87
2024-01-24T12:10:58.157Z,9.66
2024-01-24T12:13:24.732Z,9.76
2024-01-24T12:15:51.229Z,9.67
2024-01-24T12:18:17.938Z,9.94
2024-01-24T12:20:46.361Z,9.73
2024-01-24T12:23:12.885Z,10.07
2024-01-24T12:25:41.729Z,10.24
2024-01-24T12:28:08.226Z,9.70
2024-01-24T12:30:34.844Z,9.94
2024-01-24T12:33:01.210Z,10.10
2024-01-24T12:35:27.686Z,10.34
2024-01-24T12:37:54.085Z,10.66
2024-01-24T12:40:20.619Z,10.38
2024-01-24T12:42:47.130Z,9.85
2024-01-24T12:45:13.693Z,9.60
2024-01-24T12:47:40.135Z,9.71
2024-01-24T12:50:06.607Z,9.85
2024-01-24T12:52:32.881Z,9.66
2024-01-24T12:54:59.381Z,9.71
2024-01-24T12:57:25.715Z,9.94
2024-01-24T12:59:52.044Z,10.03
2024-01-24T13:02:18.581Z,10.02
2024-01-24T13:04:45.185Z,9.69
2024-01-24T13:07:11.574Z,9.70
2024-01-24T13:09:42.842Z,9.72
2024-01-24T13:12:04.467Z,9.47
2024-01-24T13:14:30.917Z,9.78
2024-01-24T13:16:57.333Z,9.84
2024-01-24T13:19:23.870Z,9.44
2024-01-24T13:21:50.272Z,9.36
2024-01-24T13:24:16.597Z,9.28
2024-01-24T13:26:43.626Z,9.46
2024-01-24T13:29:09.463Z,9.60
2024-01-24T13:31:36.067Z,9.59
2024-01-24T13:34:02.482Z,9.82
2024-01-24T13:36:28.989Z,9.86
2024-01-24T13:38:55.361Z,10.15
2024-01-24T13:41:21.887Z,10.01
2024-01-24T13:43:48.168Z,9.71
2024-01-24T13:46:14.769Z,9.42
2024-01-24T13:48:41.146Z,9.17
2024-01-24T13:51:07.544Z,9.42
2024-01-24T13:53:33.890Z,9.30
2024-01-24T13:56:00.403Z,8.96
2024-01-24T13:58:27.011Z,8.65
2024-01-24T14:00:53.352Z,8.67
2024-01-24T14:03:19.716Z,8.61
2024-01-24T14:05:46.152Z,8.59
2024-01-24T14:08:12.553Z,8.33
2024-01-24T14:10:41.045Z,8.32
2024-01-24T14:13:07.538Z,8.17
2024-01-24T14:15:36.568Z,7.84
2024-01-24T14:18:00.408Z,7.60
2024-01-24T14:20:26.765Z,7.38
2024-01-24T14:22:53.131Z,7.28
2024-01-24T14:25:19.525Z,7.29
2024-01-24T14:27:45.957Z,7.07
2024-01-24T14:30:12.404Z,6.83
2024-01-24T14:32:38.798Z,6.83
2024-01-24T14:35:05.280Z,6.75
2024-01-24T14:37:33.373Z,6.63
2024-01-24T14:39:58.066Z,6.61
2024-01-24T14:42:24.476Z,6.59
2024-01-24T14:44:51.038Z,6.58
2024-01-24T14:47:17.370Z,6.54
2024-01-24T14:49:43.958Z,6.41
2024-01-24T14:52:10.346Z,6.38
2024-01-24T14:54:36.767Z,6.39
2024-01-24T14:57:03.343Z,6.33
2024-01-24T14:59:29.811Z,6.26
2024-01-24T15:01:56.263Z,6.11
2024-01-24T15:04:22.875Z,6.09
2024-01-24T15:06:49.233Z,5.99
2024-01-24T15:09:15.632Z,5.85
2024-01-24T15:11:41.988Z,5.85
2024-01-24T15:14:08.540Z,5.80
2024-01-24T15:16:34.970Z,5.80
2024-01-24T15:19:01.482Z,5.74
2024-01-24T15:21:31.860Z,5.79
2024-01-24T15:23:54.239Z,5.72
2024-01-24T15:26:20.597Z,5.58
2024-01-24T15:28:47.114Z,5.53
2024-01-24T15:31:13.582Z,5.48
2024-01-24T15:33:40.060Z,5.45
2024-01-24T15:36:06.412Z,5.47
2024-01-24T15:38:32.954Z,5.41
2024-01-24T15:40:59.292Z,5.42
2024-01-24T15:43:27.073Z,5.53
2024-01-24T15:45:53.488Z,5.57
2024-01-24T15:48:19.968Z,5.66
2024-01-24T15:50:46.708Z,5.70
2024-01-24T15:53:13.163Z,5.58
2024-01-24T15:55:39.528Z,5.57
2024-01-24T15:58:06.136Z,5.49
2024-01-24T16:00:32.481Z,5.35
2024-01-24T16:02:59.059Z,5.28
2024-01-24T16:05:25.450Z,5.24
2024-01-24T16:07:51.911Z,5.26
2024-01-24T16:10:20.626Z,5.20
2024-01-24T16:12:47.136Z,5.16
2024-01-24T16:15:13.447Z,5.09
2024-01-24T16:17:40.012Z,5.08
2024-01-24T16:20:06.481Z,5.10
2024-01-24T16:22:36.434Z,5.07
2024-01-24T16:24:59.348Z,5.09
2024-01-24T16:27:25.878Z,5.07
2024-01-24T16:29:52.676Z,5.06
2024-01-24T16:32:19.228Z,5.00
2024-01-24T16:34:46.516Z,4.97
2024-01-24T16:37:12.865Z,4.94
2024-01-24T16:39:39.287Z,4.93
2024-01-24T16:42:05.740Z,4.93
2024-01-24T16:44:32.143Z,4.96
2024-01-24T16:46:58.724Z,5.02
2024-01-24T16:49:25.198Z,5.01
2024-01-24T16:51:51.579Z,5.05
2024-01-24T16:54:17.948Z,5.08
2024-01-24T16:56:44.422Z,5.05
2024-01-24T16:59:10.783Z,5.06
2024-01-24T17:01:37.501Z,5.10
2024-01-24T17:04:03.749Z,5.09
2024-01-24T17:06:30.145Z,5.08
2024-01-24T17:08:56.593Z,5.07
2024-01-24T17:11:23.036Z,5.07
2024-01-24T17:13:49.380Z,5.01
2024-01-24T17:16:15.815Z,5.05
2024-01-24T17:18:42.286Z,5.01
2024-01-24T17:21:08.683Z,5.05
2024-01-24T17:23:35.198Z,4.99
2024-01-24T17:26:01.637Z,4.82
2024-01-24T17:28:27.980Z,4.78
2024-01-24T17:30:54.779Z,4.75
2024-01-24T17:33:21.318Z,4.71
2024-01-24T17:35:47.681Z,4.73
2024-01-24T17:38:14.040Z,4.67
2024-01-24T17:40:40.539Z,4.70
2024-01-24T17:43:07.341Z,4.72
2024-01-24T17:45:33.755Z,4.76
2024-01-24T17:48:00.187Z,4.77
2024-01-24T17:50:26.575Z,4.77
2024-01-24T17:52:52.924Z,4.77
2024-01-24T17:55:19.456Z,4.68
2024-01-24T17:57:45.841Z,4.62
2024-01-24T18:00:12.315Z,4.67
2024-01-24T18:02:38.649Z,4.71
2024-01-24T18:05:05.138Z,4.83
2024-01-24T18:07:31.829Z,4.90
2024-01-24T18:09:58.091Z,5.00
2024-01-24T18:12:24.480Z,5.00
2024-01-24T18:14:50.913Z,4.91
2024-01-24T18:17:17.331Z,4.89
2024-01-24T18:19:43.930Z,4.85
2024-01-24T18:22:10.215Z,4.89
2024-01-24T18:24:36.652Z,4.95
2024-01-24T18:27:03.015Z,5.02
2024-01-24T18:29:29.403Z,4.95
2024-01-24T18:31:55.743Z,4.82
2024-01-24T18:34:22.230Z,4.86
2024-01-24T18:36:48.512Z,4.95
2024-01-24T18:39:14.919Z,5.03
2024-01-24T18:41:41.353Z,5.09
2024-01-24T18:44:07.806Z,5.11
2024-01-24T18:46:34.217Z,5.16
2024-01-24T18:49:04.321Z,5.18
2024-01-24T18:51:27.181Z,5.20
2024-01-24T18:53:53.617Z,5.31
2024-01-24T18:56:20.068Z,5.26
2024-01-24T18:58:46.887Z,5.26
2024-01-24T19:01:13.340Z,5.35
2024-01-24T19:03:39.864Z,5.33
2024-01-24T19:06:06.228Z,5.29
2024-01-24T19:08:32.633Z,5.36
2024-01-24T19:10:59.035Z,5.42
2024-01-24T19:13:25.600Z,5.39
2024-01-24T19:15:51.972Z,5.44
2024-01-24T19:18:24.838Z,5.39
2024-01-24T19:20:48.034Z,5.38
2024-01-24T19:23:14.518Z,5.35
2024-01-24T19:25:40.948Z,5.11
2024-01-24T19:28:07.485Z,4.74
2024-01-24T19:30:33.754Z,4.52
2024-01-24T19:33:00.317Z,4.31
2024-01-24T19:35:26.709Z,4.09
2024-01-24T19:37:53.137Z,4.12
2024-01-24T19:40:19.545Z,4.00
2024-01-24T19:42:45.980Z,3.76
2024-01-24T19:45:12.317Z,3.67
2024-01-24T19:47:38.733Z,3.74
2024-01-24T19:50:06.005Z,3.75
2024-01-24T19:52:32.525Z,3.62
2024-01-24T19:54:58.919Z,3.51
2024-01-24T19:57:25.417Z,3.47
2024-01-24T19:59:51.828Z,3.37
2024-01-24T20:02:18.305Z,3.31
2024-01-24T20:04:44.677Z,3.32
2024-01-24T20:07:11.250Z,3.30
2024-01-24T20:09:37.657Z,3.30
2024-01-24T20:12:04.117Z,3.26
2024-01-24T20:14:30.531Z,3.22
2024-01-24T20:16:56.983Z,3.14
2024-01-24T20:19:25.621Z,3.16
2024-01-24T20:21:52.141Z,3.18
2024-01-24T20:24:18.511Z,3.19
2024-01-24T20:26:44.916Z,3.17
2024-01-24T20:29:11.394Z,3.06
2024-01-24T20:31:37.751Z,3.06
2024-01-24T20:34:04.262Z,3.14
2024-01-24T20:36:30.602Z,3.23
2024-01-24T20:38:57.053Z,3.38
2024-01-24T20:41:24.872Z,3.42
2024-01-24T20:43:49.887Z,3.39
2024-01-24T20:46:16.457Z,3.34
2024-01-24T20:48:43.039Z,3.31
2024-01-24T20:51:09.219Z,3.35
2024-01-24T20:53:35.731Z,3.36
2024-01-24T20:56:02.088Z,3.33
2024-01-24T20:58:28.531Z,3.45
2024-01-24T21:00:55.185Z,3.40
2024-01-24T21:03:21.340Z,3.32
2024-01-24T21:05:47.718Z,3.39
2024-01-24T21:08:14.189Z,3.45
2024-01-24T21:10:45.611Z,3.37
2024-01-24T21:13:07.137Z,3.30
2024-01-24T21:15:33.493Z,3.11
2024-01-24T21:18:00.024Z,3.09
2024-01-24T21:20:26.499Z,3.20
2024-01-24T21:22:53.355Z,3.27
2024-01-24T21:25:19.709Z,3.21
2024-01-24T21:27:46.096Z,3.27
2024-01-24T21:30:12.481Z,3.26
2024-01-24T21:32:39.084Z,3.31
2024-01-24T21:35:05.485Z,3.47
2024-01-24T21:37:32.128Z,3.53
2024-01-24T21:39:58.438Z,3.61
2024-01-24T21:42:24.886Z,3.69
2024-01-24T21:44:51.235Z,3.78
2024-01-24T21:47:17.752Z,3.83
2024-01-24T21:49:44.390Z,4.03
2024-01-24T21:52:10.642Z,3.98
2024-01-24T21:54:36.986Z,3.96
2024-01-24T21:57:03.390Z,3.91
2024-01-24T21:59:29.808Z,3.82
2024-01-24T22:01:56.217Z,3.96
2024-01-24T22:04:22.646Z,4.31
2024-01-24T22:06:49.037Z,4.32
2024-01-24T22:09:15.441Z,4.13
2024-01-24T22:11:41.890Z,4.05
2024-01-24T22:14:08.238Z,4.11
2024-01-24T22:16:34.730Z,4.14
2024-01-24T22:19:01.205Z,4.22
2024-01-24T22:21:27.592Z,4.19
2024-01-24T22:23:53.954Z,4.14
2024-01-24T22:26:20.475Z,4.23
2024-01-24T22:28:46.822Z,4.25
2024-01-24T22:31:13.387Z,4.11
2024-01-24T22:33:39.816Z,4.05
2024-01-24T22:36:06.205Z,4.22
2024-01-24T22:38:32.580Z,4.39
2024-01-24T22:40:59.091Z,4.24
2024-01-24T22:43:25.475Z,4.13
2024-01-24T22:45:51.936Z,4.12
2024-01-24T22:48:18.380Z,4.01
2024-01-24T22:50:44.722Z,4.14
2024-01-24T22:53:11.061Z,4.25
2024-01-24T22:55:37.556Z,4.04
2024-01-24T22:58:04.085Z,3.82
2024-01-24T23:00:30.463Z,3.81
2024-01-24T23:02:56.784Z,4.01
2024-01-24T23:05:23.289Z,4.15
2024-01-24T23:07:49.604Z,4.25
2024-01-24T23:10:16.131Z,4.46
2024-01-24T23:12:42.519Z,4.46
2024-01-24T23:15:08.854Z,4.44
2024-01-24T23:17:35.377Z,4.45
2024-01-24T23:20:01.832Z,4.39
2024-01-24T23:22:28.099Z,4.29
2024-01-24T23:24:54.671Z,4.29
2024-01-24T23:27:20.953Z,4.28
2024-01-24T23:29:47.381Z,4.30
2024-01-24T23:32:13.875Z,4.60
2024-01-24T23:34:40.407Z,4.66
2024-01-24T23:37:06.838Z,4.89
2024-01-24T23:39:33.112Z,4.80
2024-01-24T23:41:59.458Z,4.72
2024-01-24T23:44:25.893Z,4.53
2024-01-24T23:46:52.235Z,4.48
2024-01-24T23:49:18.872Z,4.40
2024-01-24T23:51:45.256Z,4.33
2024-01-24T23:54:11.549Z,4.18
2024-01-24T23:56:37.903Z,4.18
2024-01-24T23:59:04.432Z,4.36
